createdAt,value
2018-11-01T00:00:41.672Z,45.03
2018-11-01T00:01:44.275Z,44.55
2018-11-01T00:02:47.184Z,44.77
2018-11-01T00:03:50.071Z,44.63
2018-11-01T00:04:52.663Z,44.90
2018-11-01T00:05:55.252Z,44.72
2018-11-01T00:06:57.840Z,44.76
2018-11-01T00:08:00.427Z,44.69
2018-11-01T00:09:03.531Z,44.68
2018-11-01T00:10:06.327Z,44.66
2018-11-01T00:11:08.919Z,44.56
2018-11-01T00:12:11.499Z,44.59
2018-11-01T00:13:14.080Z,44.87
2018-11-01T00:14:16.671Z,44.92
2018-11-01T00:15:19.281Z,44.52
2018-11-01T00:16:22.020Z,44.97
2018-11-01T00:17:24.623Z,45.04
2018-11-01T00:18:27.202Z,44.73
2018-11-01T00:19:29.911Z,44.90
2018-11-01T00:20:32.531Z,45.08
2018-11-01T00:21:35.127Z,44.53
2018-11-01T00:22:37.839Z,45.07
2018-11-01T00:23:40.443Z,44.60
2018-11-01T00:24:43.143Z,44.91
2018-11-01T00:25:45.793Z,44.81
2018-11-01T00:26:48.543Z,45.10
2018-11-01T00:27:51.136Z,44.57
2018-11-01T00:28:53.730Z,44.61
2018-11-01T00:29:56.415Z,44.60
2018-11-01T00:30:59.029Z,45.00
2018-11-01T00:32:01.623Z,45.00
2018-11-01T00:33:04.375Z,45.03
2018-11-01T00:34:06.964Z,45.08
2018-11-01T00:35:09.716Z,44.88
2018-11-01T00:36:12.308Z,45.13
2018-11-01T00:37:14.899Z,44.64
2018-11-01T00:38:17.507Z,45.07
2018-11-01T00:39:20.091Z,44.60
2018-11-01T00:40:22.787Z,44.63
2018-11-01T00:41:25.375Z,45.01
2018-11-01T00:42:27.982Z,44.73
2018-11-01T00:43:30.578Z,45.05
2018-11-01T00:44:33.191Z,45.02
2018-11-01T00:45:35.914Z,45.15
2018-11-01T00:46:38.515Z,45.18
2018-11-01T00:47:41.135Z,44.85
2018-11-01T00:48:43.767Z,44.63
2018-11-01T00:49:46.351Z,44.68
2018-11-01T00:50:49.046Z,45.01
2018-11-01T00:51:51.640Z,45.10
2018-11-01T00:52:54.247Z,44.67
2018-11-01T00:53:56.858Z,45.17
2018-11-01T00:54:59.455Z,44.64
2018-11-01T00:56:02.156Z,45.25
2018-11-01T00:57:04.943Z,45.13
2018-11-01T00:58:07.543Z,44.70
2018-11-01T00:59:10.152Z,44.64
2018-11-01T01:00:14.315Z,45.17
2018-11-01T01:01:16.936Z,45.17
2018-11-01T01:02:19.543Z,44.78
2018-11-01T01:03:22.148Z,45.09
2018-11-01T01:04:24.743Z,44.87
2018-11-01T01:05:27.342Z,45.18
2018-11-01T01:06:29.958Z,44.86
2018-11-01T01:07:32.579Z,45.23
2018-11-01T01:08:35.171Z,44.76
2018-11-01T01:09:37.755Z,45.22
2018-11-01T01:10:40.355Z,44.77
2018-11-01T01:11:43.051Z,45.04
2018-11-01T01:12:46.767Z,44.88
2018-11-01T01:13:49.409Z,44.78
2018-11-01T01:14:51.991Z,45.31
2018-11-01T01:15:54.589Z,44.97
2018-11-01T01:16:57.290Z,44.83
2018-11-01T01:17:59.875Z,45.15
2018-11-01T01:19:02.765Z,44.80
2018-11-01T01:20:07.582Z,44.86
2018-11-01T01:21:10.183Z,44.79
2018-11-01T01:22:12.895Z,45.39
2018-11-01T01:23:15.483Z,45.27
2018-11-01T01:24:18.081Z,44.89
2018-11-01T01:25:20.688Z,45.35
2018-11-01T01:26:23.319Z,44.84
2018-11-01T01:27:26.200Z,45.32
2018-11-01T01:28:28.912Z,45.42
2018-11-01T01:29:31.547Z,45.46
2018-11-01T01:30:34.136Z,45.32
2018-11-01T01:31:36.767Z,45.17
2018-11-01T01:32:39.466Z,45.00
2018-11-01T01:33:42.105Z,45.38
2018-11-01T01:34:45.067Z,45.06
2018-11-01T01:35:47.680Z,45.04
2018-11-01T01:36:50.323Z,45.25
2018-11-01T01:37:53.016Z,44.95
2018-11-01T01:38:55.607Z,45.08
2018-11-01T01:39:58.214Z,44.96
2018-11-01T01:41:00.807Z,45.33
2018-11-01T01:42:03.455Z,45.48
2018-11-01T01:43:06.047Z,45.15
2018-11-01T01:44:08.635Z,45.32
2018-11-01T01:45:11.243Z,45.28
2018-11-01T01:46:13.963Z,45.29
2018-11-01T01:47:16.551Z,45.10
2018-11-01T01:48:19.258Z,45.12
2018-11-01T01:49:21.847Z,45.47
2018-11-01T01:50:24.523Z,45.26
2018-11-01T01:51:27.071Z,44.96
2018-11-01T01:52:29.675Z,45.03
2018-11-01T01:53:32.376Z,45.25
2018-11-01T01:54:34.979Z,44.92
2018-11-01T01:55:37.578Z,44.98
2018-11-01T01:56:40.172Z,45.48
2018-11-01T01:57:42.826Z,45.44
2018-11-01T01:58:45.515Z,44.91
2018-11-01T01:59:48.097Z,44.90
2018-11-01T02:00:50.677Z,44.90
2018-11-01T02:01:53.274Z,44.88
2018-11-01T02:02:55.867Z,45.37
2018-11-01T02:03:58.566Z,44.80
2018-11-01T02:05:01.179Z,44.86
2018-11-01T02:06:04.083Z,45.20
2018-11-01T02:07:06.701Z,45.00
2018-11-01T02:08:09.303Z,45.40
2018-11-01T02:09:12.823Z,44.96
2018-11-01T02:10:16.340Z,44.99
2018-11-01T02:11:18.943Z,44.94
2018-11-01T02:12:21.563Z,44.96
2018-11-01T02:13:24.147Z,44.92
2018-11-01T02:14:26.738Z,45.38
2018-11-01T02:15:29.339Z,44.75
2018-11-01T02:16:31.951Z,45.13
2018-11-01T02:17:34.555Z,45.16
2018-11-01T02:18:37.134Z,45.13
2018-11-01T02:19:39.747Z,45.27
2018-11-01T02:20:42.355Z,45.22
2018-11-01T02:21:44.947Z,44.69
2018-11-01T02:22:47.563Z,45.10
2018-11-01T02:23:50.166Z,44.74
2018-11-01T02:24:52.883Z,44.65
2018-11-01T02:25:55.491Z,44.99
2018-11-01T02:26:58.119Z,45.05
2018-11-01T02:28:20.407Z,45.22
2018-11-01T02:29:23.026Z,44.91
2018-11-01T02:30:25.866Z,45.05
2018-11-01T02:31:28.515Z,44.95
2018-11-01T02:32:31.088Z,44.68
2018-11-01T02:33:33.668Z,45.20
2018-11-01T02:34:36.275Z,44.65
2018-11-01T02:35:38.996Z,45.18
2018-11-01T02:36:41.606Z,45.10
2018-11-01T02:37:44.820Z,45.09
2018-11-01T02:38:47.505Z,45.18
2018-11-01T02:39:50.052Z,45.10
2018-11-01T02:40:52.764Z,44.65
2018-11-01T02:41:55.376Z,45.17
2018-11-01T02:42:57.982Z,44.90
2018-11-01T02:44:00.572Z,44.96
2018-11-01T02:45:03.280Z,44.58
2018-11-01T02:46:05.970Z,44.97
2018-11-01T02:47:08.551Z,45.04
2018-11-01T02:48:11.144Z,44.64
2018-11-01T02:49:13.879Z,44.59
2018-11-01T02:50:16.479Z,44.59
2018-11-01T02:51:19.183Z,44.95
2018-11-01T02:52:22.004Z,45.02
2018-11-01T02:53:24.591Z,44.42
2018-11-01T02:54:27.183Z,44.99
2018-11-01T02:55:29.777Z,44.63
2018-11-01T02:56:32.471Z,44.52
2018-11-01T02:57:35.068Z,44.51
2018-11-01T02:58:37.673Z,44.78
2018-11-01T02:59:40.307Z,44.79
2018-11-01T03:00:42.884Z,44.22
2018-11-01T03:01:45.782Z,44.48
2018-11-01T03:02:48.405Z,44.76
2018-11-01T03:03:51.003Z,44.47
2018-11-01T03:04:53.593Z,44.69
2018-11-01T03:05:56.179Z,44.21
2018-11-01T03:06:58.794Z,44.31
2018-11-01T03:08:01.387Z,44.85
2018-11-01T03:09:05.140Z,44.47
2018-11-01T03:10:09.349Z,44.45
2018-11-01T03:11:11.972Z,44.36
2018-11-01T03:12:21.100Z,44.46
2018-11-01T03:13:23.791Z,44.41
2018-11-01T03:14:26.389Z,44.24
2018-11-01T03:15:28.987Z,44.56
2018-11-01T03:16:31.578Z,44.88
2018-11-01T03:17:34.263Z,44.44
2018-11-01T03:18:36.869Z,44.84
2018-11-01T03:19:39.467Z,44.29
2018-11-01T03:20:42.067Z,44.55
2018-11-01T03:21:44.759Z,44.71
2018-11-01T03:22:47.351Z,44.82
2018-11-01T03:23:49.955Z,44.81
2018-11-01T03:24:52.550Z,44.16
2018-11-01T03:25:55.132Z,44.34
2018-11-01T03:26:57.743Z,44.23
2018-11-01T03:28:00.444Z,44.49
2018-11-01T03:29:03.056Z,44.13
2018-11-01T03:30:06.309Z,44.51
2018-11-01T03:31:08.930Z,44.19
2018-11-01T03:32:11.763Z,44.26
2018-11-01T03:33:14.467Z,44.13
2018-11-01T03:34:17.075Z,44.68
2018-11-01T03:35:19.732Z,44.27
2018-11-01T03:36:22.315Z,44.12
2018-11-01T03:37:24.945Z,44.11
2018-11-01T03:38:27.800Z,44.64
2018-11-01T03:39:30.280Z,44.18
2018-11-01T03:40:32.938Z,44.10
2018-11-01T03:41:35.687Z,44.19
2018-11-01T03:42:38.805Z,44.17
2018-11-01T03:43:41.487Z,44.07
2018-11-01T03:44:44.123Z,44.32
2018-11-01T03:45:46.785Z,43.92
2018-11-01T03:46:49.419Z,44.47
2018-11-01T03:47:52.011Z,44.26
2018-11-01T03:48:54.699Z,44.41
2018-11-01T03:49:57.316Z,44.25
2018-11-01T03:50:59.904Z,43.91
2018-11-01T03:52:02.582Z,44.29
2018-11-01T03:53:05.420Z,44.19
2018-11-01T03:54:08.560Z,44.33
2018-11-01T03:55:11.858Z,44.07
2018-11-01T03:56:14.460Z,44.24
2018-11-01T03:57:17.050Z,44.25
2018-11-01T03:58:19.657Z,43.91
2018-11-01T03:59:22.375Z,43.78
2018-11-01T04:00:24.967Z,44.12
2018-11-01T04:01:27.553Z,43.88
2018-11-01T04:02:30.152Z,43.90
2018-11-01T04:03:33.035Z,43.70
2018-11-01T04:04:35.608Z,44.13
2018-11-01T04:05:38.196Z,44.01
2018-11-01T04:06:40.815Z,44.20
2018-11-01T04:07:43.438Z,43.79
2018-11-01T04:08:46.053Z,44.07
2018-11-01T04:09:48.735Z,43.58
2018-11-01T04:10:51.342Z,43.61
2018-11-01T04:11:53.933Z,44.11
2018-11-01T04:12:56.523Z,43.77
2018-11-01T04:13:59.117Z,44.02
2018-11-01T04:15:01.924Z,44.09
2018-11-01T04:16:04.515Z,44.03
2018-11-01T04:17:07.218Z,43.83
2018-11-01T04:18:09.736Z,44.09
2018-11-01T04:19:12.381Z,44.03
2018-11-01T04:20:14.980Z,43.60
2018-11-01T04:21:17.611Z,43.80
2018-11-01T04:22:20.203Z,43.34
2018-11-01T04:23:22.949Z,43.97
2018-11-01T04:24:25.441Z,43.51
2018-11-01T04:25:28.028Z,43.81
2018-11-01T04:26:30.652Z,43.88
2018-11-01T04:27:33.255Z,43.38
2018-11-01T04:28:35.867Z,43.85
2018-11-01T04:29:38.463Z,43.27
2018-11-01T04:30:41.156Z,43.48
2018-11-01T04:31:43.766Z,43.29
2018-11-01T04:32:46.347Z,43.69
2018-11-01T04:33:49.017Z,43.58
2018-11-01T04:34:51.551Z,43.25
2018-11-01T04:35:54.272Z,43.26
2018-11-01T04:36:56.888Z,43.25
2018-11-01T04:37:59.493Z,43.37
2018-11-01T04:39:02.171Z,43.69
2018-11-01T04:40:05.715Z,43.36
2018-11-01T04:41:08.433Z,43.13
2018-11-01T04:42:12.675Z,43.44
2018-11-01T04:43:15.329Z,43.48
2018-11-01T04:44:17.963Z,43.18
2018-11-01T04:45:20.525Z,43.06
2018-11-01T04:46:23.235Z,43.60
2018-11-01T04:47:25.915Z,43.37
2018-11-01T04:48:28.476Z,43.55
2018-11-01T04:49:31.071Z,43.21
2018-11-01T04:50:33.688Z,43.23
2018-11-01T04:51:36.547Z,43.00
2018-11-01T04:52:39.383Z,43.02
2018-11-01T04:53:41.975Z,43.26
2018-11-01T04:54:44.567Z,42.86
2018-11-01T04:55:47.162Z,43.23
2018-11-01T04:56:49.743Z,43.32
2018-11-01T04:57:52.323Z,42.86
2018-11-01T04:58:54.919Z,42.98
2018-11-01T04:59:57.507Z,42.98
2018-11-01T05:01:00.110Z,43.20
2018-11-01T05:02:02.816Z,43.26
2018-11-01T05:03:05.847Z,42.68
2018-11-01T05:04:08.455Z,42.75
2018-11-01T05:05:11.329Z,43.26
2018-11-01T05:06:13.795Z,43.02
2018-11-01T05:07:16.395Z,43.28
2018-11-01T05:08:18.983Z,43.07
2018-11-01T05:09:21.565Z,43.13
2018-11-01T05:10:24.143Z,42.79
2018-11-01T05:11:26.741Z,42.94
2018-11-01T05:12:29.425Z,42.80
2018-11-01T05:13:32.021Z,42.67
2018-11-01T05:14:34.605Z,42.86
2018-11-01T05:15:37.204Z,42.84
2018-11-01T05:16:39.812Z,43.19
2018-11-01T05:17:42.518Z,42.75
2018-11-01T05:18:45.501Z,43.01
2018-11-01T05:19:48.099Z,42.67
2018-11-01T05:20:50.695Z,42.91
2018-11-01T05:21:53.275Z,43.21
2018-11-01T05:22:55.991Z,42.63
2018-11-01T05:24:00.376Z,43.00
2018-11-01T05:25:03.039Z,42.77
2018-11-01T05:26:05.814Z,42.59
2018-11-01T05:27:08.407Z,42.59
2018-11-01T05:28:11.104Z,42.87
2018-11-01T05:29:13.715Z,42.88
2018-11-01T05:30:16.318Z,42.93
2018-11-01T05:31:18.966Z,42.71
2018-11-01T05:32:21.598Z,42.31
2018-11-01T05:33:24.537Z,42.46
2018-11-01T05:34:27.202Z,42.44
2018-11-01T05:35:29.858Z,42.35
2018-11-01T05:36:32.518Z,42.56
2018-11-01T05:37:35.159Z,42.54
2018-11-01T05:38:38.087Z,42.25
2018-11-01T05:39:40.746Z,42.65
2018-11-01T05:40:43.386Z,42.15
2018-11-01T05:41:46.039Z,42.14
2018-11-01T05:42:48.698Z,42.39
2018-11-01T05:43:51.610Z,42.02
2018-11-01T05:44:54.248Z,42.26
2018-11-01T05:45:57.473Z,42.10
2018-11-01T05:47:00.130Z,42.25
2018-11-01T05:48:02.788Z,42.16
2018-11-01T05:49:06.163Z,42.54
2018-11-01T05:50:08.879Z,42.45
2018-11-01T05:51:11.526Z,42.32
2018-11-01T05:52:14.175Z,41.94
2018-11-01T05:53:16.818Z,42.26
2018-11-01T05:54:19.900Z,41.93
2018-11-01T05:55:22.539Z,41.93
2018-11-01T05:56:25.166Z,42.10
2018-11-01T05:57:27.806Z,41.90
2018-11-01T05:58:30.481Z,42.22
2018-11-01T05:59:33.130Z,42.06
2018-11-01T06:00:35.801Z,41.99
2018-11-01T06:01:42.957Z,42.16
2018-11-01T06:02:47.491Z,41.96
2018-11-01T06:03:50.146Z,42.54
2018-11-01T06:04:53.334Z,42.12
2018-11-01T06:05:55.974Z,41.99
2018-11-01T06:06:58.668Z,42.26
2018-11-01T06:08:04.506Z,41.91
2018-11-01T06:09:09.138Z,41.91
2018-11-01T06:10:11.891Z,42.44
2018-11-01T06:11:14.554Z,42.13
2018-11-01T06:12:17.239Z,42.45
2018-11-01T06:13:19.926Z,42.05
2018-11-01T06:14:22.574Z,41.96
2018-11-01T06:15:25.306Z,41.86
2018-11-01T06:16:27.942Z,42.02
2018-11-01T06:17:30.582Z,42.24
2018-11-01T06:18:33.330Z,41.90
2018-11-01T06:19:35.984Z,42.38
2018-11-01T06:20:38.817Z,41.94
2018-11-01T06:21:41.550Z,41.76
2018-11-01T06:22:44.198Z,41.91
2018-11-01T06:23:49.586Z,41.91
2018-11-01T06:24:52.235Z,42.01
2018-11-01T06:25:54.977Z,41.92
2018-11-01T06:26:57.648Z,42.07
2018-11-01T06:28:00.282Z,42.10
2018-11-01T06:29:02.934Z,42.15
2018-11-01T06:30:08.916Z,41.90
2018-11-01T06:31:11.658Z,41.61
2018-11-01T06:32:14.310Z,41.71
2018-11-01T06:33:16.942Z,41.72
2018-11-01T06:34:23.738Z,41.54
2018-11-01T06:35:29.798Z,41.70
2018-11-01T06:36:32.546Z,41.93
2018-11-01T06:37:35.194Z,41.39
2018-11-01T06:38:38.040Z,41.85
2018-11-01T06:39:40.676Z,41.50
2018-11-01T06:40:43.342Z,41.84
2018-11-01T06:41:46.086Z,41.72
2018-11-01T06:42:48.751Z,41.72
2018-11-01T06:43:51.391Z,41.65
2018-11-01T06:44:54.084Z,41.52
2018-11-01T06:45:56.712Z,41.20
2018-11-01T06:46:59.447Z,41.19
2018-11-01T06:48:02.134Z,41.67
2018-11-01T06:49:05.172Z,41.63
2018-11-01T06:50:07.902Z,41.07
2018-11-01T06:51:10.553Z,41.55
2018-11-01T06:52:13.296Z,41.08
2018-11-01T06:53:15.970Z,41.40
2018-11-01T06:54:18.605Z,41.55
2018-11-01T06:55:21.276Z,41.14
2018-11-01T06:56:23.934Z,41.41
2018-11-01T06:57:26.686Z,41.62
2018-11-01T06:58:29.447Z,41.18
2018-11-01T06:59:32.087Z,41.31
2018-11-01T07:00:34.678Z,41.40
2018-11-01T07:01:37.329Z,41.09
2018-11-01T07:02:40.278Z,40.91
2018-11-01T07:03:43.119Z,41.48
2018-11-01T07:04:45.763Z,41.41
2018-11-01T07:05:48.439Z,41.35
2018-11-01T07:06:51.072Z,41.18
2018-11-01T07:07:53.825Z,40.96
2018-11-01T07:08:56.474Z,40.74
2018-11-01T07:09:59.102Z,40.87
2018-11-01T07:11:01.762Z,40.75
2018-11-01T07:12:04.426Z,40.82
2018-11-01T07:13:07.074Z,41.29
2018-11-01T07:14:10.081Z,40.64
2018-11-01T07:15:13.966Z,41.28
2018-11-01T07:16:16.606Z,40.85
2018-11-01T07:17:19.371Z,41.25
2018-11-01T07:18:22.010Z,41.03
2018-11-01T07:19:24.646Z,40.75
2018-11-01T07:20:27.306Z,40.69
2018-11-01T07:21:29.979Z,41.19
2018-11-01T07:22:32.622Z,40.69
2018-11-01T07:23:35.362Z,40.81
2018-11-01T07:24:38.026Z,40.75
2018-11-01T07:25:40.805Z,40.58
2018-11-01T07:26:43.406Z,40.77
2018-11-01T07:27:46.090Z,40.57
2018-11-01T07:28:48.766Z,40.57
2018-11-01T07:29:51.406Z,40.63
2018-11-01T07:30:54.038Z,41.14
2018-11-01T07:31:56.694Z,40.83
2018-11-01T07:32:59.355Z,41.00
2018-11-01T07:34:02.122Z,41.13
2018-11-01T07:35:05.248Z,41.11
2018-11-01T07:36:07.894Z,40.56
2018-11-01T07:37:10.542Z,41.12
2018-11-01T07:38:13.187Z,40.97
2018-11-01T07:39:15.933Z,41.13
2018-11-01T07:40:19.138Z,40.52
2018-11-01T07:41:21.770Z,40.73
2018-11-01T07:42:24.398Z,40.88
2018-11-01T07:43:27.047Z,40.89
2018-11-01T07:44:29.802Z,40.59
2018-11-01T07:45:32.430Z,41.14
2018-11-01T07:46:35.078Z,40.56
2018-11-01T07:47:38.206Z,40.60
2018-11-01T07:48:40.951Z,41.07
2018-11-01T07:49:43.633Z,40.87
2018-11-01T07:50:46.266Z,40.58
2018-11-01T07:51:48.924Z,40.51
2018-11-01T07:52:51.650Z,40.75
2018-11-01T07:53:54.222Z,41.16
2018-11-01T07:54:56.964Z,40.97
2018-11-01T07:55:59.610Z,40.69
2018-11-01T07:57:02.254Z,41.11
2018-11-01T07:58:05.062Z,40.76
2018-11-01T07:59:07.745Z,40.57
2018-11-01T08:00:12.499Z,40.59
2018-11-01T08:01:15.157Z,40.61
2018-11-01T08:02:17.799Z,41.08
2018-11-01T08:03:20.437Z,40.68
2018-11-01T08:04:23.071Z,41.11
2018-11-01T08:05:25.891Z,40.62
2018-11-01T08:06:28.519Z,40.86
2018-11-01T08:07:31.164Z,40.62
2018-11-01T08:08:33.834Z,41.16
2018-11-01T08:09:36.470Z,41.10
2018-11-01T08:10:39.222Z,40.74
2018-11-01T08:11:41.908Z,41.06
2018-11-01T08:12:45.258Z,40.54
2018-11-01T08:13:47.890Z,40.62
2018-11-01T08:14:50.542Z,41.09
2018-11-01T08:15:53.290Z,41.09
2018-11-01T08:16:55.935Z,40.92
2018-11-01T08:17:58.574Z,40.97
2018-11-01T08:19:01.447Z,40.96
2018-11-01T08:20:04.539Z,41.13
2018-11-01T08:21:07.322Z,40.99
2018-11-01T08:22:09.899Z,41.10
2018-11-01T08:23:12.546Z,41.09
2018-11-01T08:24:15.194Z,40.61
2018-11-01T08:25:17.836Z,40.74
2018-11-01T08:26:20.475Z,41.11
2018-11-01T08:27:23.143Z,40.54
2018-11-01T08:28:25.786Z,40.55
2018-11-01T08:29:28.430Z,40.75
2018-11-01T08:30:31.078Z,41.12
2018-11-01T08:31:33.842Z,41.07
2018-11-01T08:32:36.484Z,41.12
2018-11-01T08:33:39.122Z,40.98
2018-11-01T08:34:41.756Z,40.86
2018-11-01T08:35:44.402Z,41.00
2018-11-01T08:36:47.143Z,40.84
2018-11-01T08:37:49.778Z,41.07
2018-11-01T08:38:52.424Z,40.60
2018-11-01T08:39:55.065Z,41.07
2018-11-01T08:40:57.743Z,41.08
2018-11-01T08:42:00.628Z,41.00
2018-11-01T08:43:03.307Z,40.67
2018-11-01T08:44:06.158Z,40.58
2018-11-01T08:45:10.506Z,40.69
2018-11-01T08:46:13.293Z,41.10
2018-11-01T08:47:16.037Z,41.12
2018-11-01T08:48:18.669Z,40.43
2018-11-01T08:49:21.355Z,40.75
2018-11-01T08:50:24.002Z,40.82
2018-11-01T08:51:26.662Z,41.21
2018-11-01T08:52:29.446Z,40.66
2018-11-01T08:53:32.252Z,40.80
2018-11-01T08:54:34.978Z,41.01
2018-11-01T08:55:37.626Z,40.70
2018-11-01T08:56:40.262Z,41.12
2018-11-01T08:57:43.883Z,40.60
2018-11-01T08:58:46.522Z,41.11
2018-11-01T08:59:49.174Z,40.83
2018-11-01T09:00:51.850Z,40.93
2018-11-01T09:01:54.511Z,41.04
2018-11-01T09:02:57.258Z,41.28
2018-11-01T09:03:59.916Z,40.67
2018-11-01T09:05:02.600Z,41.17
2018-11-01T09:06:05.262Z,40.75
2018-11-01T09:07:07.918Z,40.77
2018-11-01T09:08:10.676Z,40.78
2018-11-01T09:09:13.374Z,40.81
2018-11-01T09:10:16.753Z,41.26
2018-11-01T09:11:19.478Z,40.85
2018-11-01T09:12:22.138Z,41.30
2018-11-01T09:13:24.927Z,41.21
2018-11-01T09:14:27.622Z,41.34
2018-11-01T09:15:30.246Z,41.19
2018-11-01T09:16:32.892Z,40.80
2018-11-01T09:17:35.611Z,40.95
2018-11-01T09:18:38.403Z,40.89
2018-11-01T09:19:41.099Z,41.21
2018-11-01T09:20:43.746Z,41.20
2018-11-01T09:21:46.574Z,41.18
2018-11-01T09:22:49.219Z,41.33
2018-11-01T09:23:51.970Z,41.36
2018-11-01T09:24:54.635Z,41.38
2018-11-01T09:25:57.278Z,41.27
2018-11-01T09:27:00.044Z,41.32
2018-11-01T09:28:02.623Z,41.05
2018-11-01T09:29:05.586Z,40.96
2018-11-01T09:30:11.293Z,41.30
2018-11-01T09:31:13.949Z,40.79
2018-11-01T09:32:16.594Z,41.21
2018-11-01T09:33:19.236Z,40.88
2018-11-01T09:34:21.984Z,41.41
2018-11-01T09:35:24.715Z,40.85
2018-11-01T09:36:27.358Z,41.39
2018-11-01T09:37:30.004Z,41.02
2018-11-01T09:38:32.673Z,41.32
2018-11-01T09:39:35.441Z,41.07
2018-11-01T09:40:38.106Z,40.91
2018-11-01T09:41:40.861Z,40.94
2018-11-01T09:42:44.078Z,41.29
2018-11-01T09:43:46.932Z,40.74
2018-11-01T09:44:49.586Z,41.17
2018-11-01T09:45:52.313Z,40.70
2018-11-01T09:46:55.278Z,40.84
2018-11-01T09:47:57.630Z,40.69
2018-11-01T09:49:00.284Z,41.26
2018-11-01T09:50:03.074Z,41.06
2018-11-01T09:51:06.042Z,41.20
2018-11-01T09:52:08.691Z,40.67
2018-11-01T09:53:11.338Z,41.02
2018-11-01T09:54:13.987Z,40.92
2018-11-01T09:55:16.778Z,40.75
2018-11-01T09:56:19.516Z,40.73
2018-11-01T09:57:22.163Z,41.06
2018-11-01T09:58:24.829Z,40.57
2018-11-01T09:59:27.491Z,40.94
2018-11-01T10:00:30.226Z,40.79
2018-11-01T10:01:32.878Z,41.00
2018-11-01T10:02:35.550Z,40.77
2018-11-01T10:03:38.194Z,41.02
2018-11-01T10:04:40.852Z,40.69
2018-11-01T10:05:43.615Z,40.67
2018-11-01T10:06:46.319Z,40.83
2018-11-01T10:07:48.958Z,40.83
2018-11-01T10:08:51.594Z,40.86
2018-11-01T10:09:54.247Z,41.24
2018-11-01T10:10:56.990Z,41.01
2018-11-01T10:11:59.628Z,41.25
2018-11-01T10:13:02.272Z,40.99
2018-11-01T10:14:05.418Z,41.17
2018-11-01T10:15:08.722Z,41.23
2018-11-01T10:16:11.729Z,41.25
2018-11-01T10:17:14.567Z,41.14
2018-11-01T10:18:17.190Z,41.34
2018-11-01T10:19:19.558Z,40.87
2018-11-01T10:20:22.198Z,40.95
2018-11-01T10:21:25.037Z,41.31
2018-11-01T10:22:27.722Z,40.89
2018-11-01T10:23:30.311Z,41.49
2018-11-01T10:24:32.968Z,41.33
2018-11-01T10:25:35.646Z,41.41
2018-11-01T10:26:38.611Z,41.11
2018-11-01T10:27:41.396Z,41.41
2018-11-01T10:28:43.970Z,41.01
2018-11-01T10:29:46.619Z,41.13
2018-11-01T10:30:49.378Z,41.48
2018-11-01T10:31:52.119Z,41.42
2018-11-01T10:32:54.760Z,41.37
2018-11-01T10:33:57.444Z,40.98
2018-11-01T10:35:00.099Z,40.90
2018-11-01T10:36:02.742Z,40.97
2018-11-01T10:37:05.510Z,41.14
2018-11-01T10:38:08.193Z,41.50
2018-11-01T10:39:11.166Z,41.07
2018-11-01T10:40:14.936Z,41.37
2018-11-01T10:41:17.635Z,41.40
2018-11-01T10:42:20.374Z,41.19
2018-11-01T10:43:23.034Z,41.17
2018-11-01T10:44:25.696Z,41.08
2018-11-01T10:45:28.366Z,41.13
2018-11-01T10:46:31.012Z,40.94
2018-11-01T10:47:33.737Z,41.12
2018-11-01T10:48:36.365Z,41.47
2018-11-01T10:49:39.006Z,41.50
2018-11-01T10:50:41.651Z,41.52
2018-11-01T10:51:44.290Z,41.45
2018-11-01T10:52:47.046Z,41.67
2018-11-01T10:53:49.738Z,41.61
2018-11-01T10:54:52.371Z,41.23
2018-11-01T10:55:55.050Z,41.77
2018-11-01T10:56:57.686Z,41.34
2018-11-01T10:58:00.467Z,41.29
2018-11-01T10:59:03.138Z,41.64
2018-11-01T11:00:07.688Z,41.61
2018-11-01T11:01:15.782Z,41.30
2018-11-01T11:02:25.937Z,41.74
2018-11-01T11:03:28.763Z,41.43
2018-11-01T11:04:31.406Z,41.67
2018-11-01T11:05:34.066Z,41.84
2018-11-01T11:06:36.747Z,41.93
2018-11-01T11:07:39.376Z,41.28
2018-11-01T11:08:42.115Z,41.79
2018-11-01T11:09:44.770Z,41.69
2018-11-01T11:10:47.422Z,41.78
2018-11-01T11:11:50.146Z,41.58
2018-11-01T11:12:52.853Z,41.98
2018-11-01T11:13:55.578Z,41.46
2018-11-01T11:14:58.230Z,41.96
2018-11-01T11:16:00.882Z,41.94
2018-11-01T11:17:03.636Z,41.80
2018-11-01T11:18:06.602Z,41.58
2018-11-01T11:19:09.246Z,41.53
2018-11-01T11:20:12.397Z,41.99
2018-11-01T11:21:15.287Z,41.61
2018-11-01T11:22:17.654Z,41.86
2018-11-01T11:23:20.302Z,42.06
2018-11-01T11:24:23.058Z,41.82
2018-11-01T11:25:25.706Z,42.07
2018-11-01T11:26:28.379Z,41.94
2018-11-01T11:27:31.037Z,41.62
2018-11-01T11:28:33.674Z,41.69
2018-11-01T11:29:36.422Z,42.00
2018-11-01T11:30:39.191Z,41.45
2018-11-01T11:31:41.754Z,41.73
2018-11-01T11:32:44.414Z,42.13
2018-11-01T11:33:47.070Z,41.51
2018-11-01T11:34:49.822Z,42.01
2018-11-01T11:35:52.528Z,41.80
2018-11-01T11:36:55.170Z,41.57
2018-11-01T11:37:57.824Z,42.04
2018-11-01T11:39:00.503Z,41.60
2018-11-01T11:40:03.355Z,41.68
2018-11-01T11:41:06.032Z,41.81
2018-11-01T11:42:08.693Z,41.95
2018-11-01T11:43:11.339Z,41.75
2018-11-01T11:44:13.982Z,42.00
2018-11-01T11:45:16.744Z,41.87
2018-11-01T11:46:19.390Z,41.91
2018-11-01T11:47:22.034Z,42.10
2018-11-01T11:48:24.722Z,41.68
2018-11-01T11:49:27.363Z,41.99
2018-11-01T11:50:30.106Z,41.83
2018-11-01T11:51:32.781Z,41.52
2018-11-01T11:52:35.434Z,41.85
2018-11-01T11:53:38.070Z,41.75
2018-11-01T11:54:40.718Z,42.06
2018-11-01T11:55:43.467Z,41.93
2018-11-01T11:56:46.131Z,42.11
2018-11-01T11:57:48.797Z,41.73
2018-11-01T11:58:51.448Z,42.08
2018-11-01T11:59:54.098Z,41.59
2018-11-01T12:00:56.910Z,41.69
2018-11-01T12:01:59.573Z,41.61
2018-11-01T12:03:02.219Z,41.96
2018-11-01T12:04:04.915Z,41.73
2018-11-01T12:05:08.006Z,42.03
2018-11-01T12:06:11.041Z,42.13
2018-11-01T12:07:13.678Z,41.66
2018-11-01T12:08:16.323Z,41.82
2018-11-01T12:09:18.970Z,42.14
2018-11-01T12:10:21.608Z,42.00
2018-11-01T12:11:24.390Z,41.62
2018-11-01T12:12:27.042Z,41.66
2018-11-01T12:13:29.722Z,42.19
2018-11-01T12:14:32.376Z,42.29
2018-11-01T12:15:35.030Z,42.19
2018-11-01T12:16:37.780Z,41.93
2018-11-01T12:17:40.442Z,42.08
2018-11-01T12:18:43.142Z,41.71
2018-11-01T12:19:45.786Z,41.68
2018-11-01T12:20:48.450Z,41.79
2018-11-01T12:21:51.210Z,41.72
2018-11-01T12:22:53.859Z,42.09
2018-11-01T12:23:56.513Z,41.81
2018-11-01T12:24:59.166Z,41.87
2018-11-01T12:26:01.828Z,42.18
2018-11-01T12:27:04.623Z,41.87
2018-11-01T12:28:07.305Z,42.10
2018-11-01T12:29:10.142Z,42.04
2018-11-01T12:30:12.970Z,41.66
2018-11-01T12:31:15.628Z,42.31
2018-11-01T12:32:18.410Z,42.14
2018-11-01T12:33:21.068Z,42.01
2018-11-01T12:34:23.716Z,42.14
2018-11-01T12:35:26.441Z,42.01
2018-11-01T12:36:29.052Z,42.03
2018-11-01T12:37:31.878Z,41.76
2018-11-01T12:38:34.538Z,41.94
2018-11-01T12:39:37.174Z,42.11
2018-11-01T12:40:39.843Z,41.66
2018-11-01T12:41:42.583Z,42.12
2018-11-01T12:42:45.182Z,41.64
2018-11-01T12:43:47.826Z,41.63
2018-11-01T12:44:50.512Z,42.09
2018-11-01T12:45:53.174Z,41.96
2018-11-01T12:46:55.822Z,42.03
2018-11-01T12:47:58.564Z,41.96
2018-11-01T12:49:01.366Z,41.63
2018-11-01T12:50:05.970Z,42.09
2018-11-01T12:51:08.539Z,41.71
2018-11-01T12:52:11.198Z,41.46
2018-11-01T12:53:13.943Z,41.72
2018-11-01T12:54:16.594Z,42.30
2018-11-01T12:55:19.245Z,41.61
2018-11-01T12:56:21.961Z,42.00
2018-11-01T12:57:24.586Z,41.72
2018-11-01T12:58:27.325Z,41.93
2018-11-01T12:59:30.016Z,41.88
2018-11-01T13:00:32.674Z,41.71
2018-11-01T13:01:35.341Z,41.50
2018-11-01T13:02:38.067Z,41.88
2018-11-01T13:03:40.884Z,41.51
2018-11-01T13:04:43.542Z,41.85
2018-11-01T13:05:46.186Z,41.86
2018-11-01T13:06:48.826Z,42.02
2018-11-01T13:07:51.514Z,41.66
2018-11-01T13:08:54.258Z,41.64
2018-11-01T13:09:56.898Z,41.90
2018-11-01T13:10:59.614Z,42.02
2018-11-01T13:12:02.450Z,41.96
2018-11-01T13:13:05.126Z,41.90
2018-11-01T13:14:07.895Z,41.88
2018-11-01T13:15:11.454Z,41.83
2018-11-01T13:16:14.110Z,42.03
2018-11-01T13:17:16.752Z,41.68
2018-11-01T13:18:19.403Z,41.92
2018-11-01T13:19:22.155Z,41.90
2018-11-01T13:20:24.810Z,41.66
2018-11-01T13:21:27.679Z,41.90
2018-11-01T13:22:30.326Z,41.71
2018-11-01T13:23:32.978Z,41.50
2018-11-01T13:24:35.718Z,41.60
2018-11-01T13:25:38.374Z,42.15
2018-11-01T13:26:41.030Z,41.51
2018-11-01T13:27:43.732Z,42.09
2018-11-01T13:28:46.391Z,41.80